NORTHEAST SUFFOLK  -  Frost Advisory Frost Advisory        NORTHWEST SUFFOLK  -  Frost Advisory Frost Advisory        SOUTHEAST SUFFOLK  -  Frost Advisory Frost Advisory        SOUTHWEST SUFFOLK  -  Frost Advisory Frost Advisory      

Active alerts

Northwest Suffolk
  Details for Northwest Suffolk Frost Advisory
Southwest Suffolk
  Details for Southwest Suffolk Frost Advisory
Northeast Suffolk
  Details for Northeast Suffolk Frost Advisory
Southeast Suffolk
  Details for Southeast Suffolk Frost Advisory


WXM80 ListenWXM80 Stop

You find our weather info also at:

UK Metoffice

WeatherCloud

Weather Underground

Northeastern Weather Network

AWEKAS

Citizen Weather Observer Program (CWOP)

HAMweather, WeatherForYou, PWS Weather


Weather Underground History page Text

Daily Summary for September 6, 2017 Units:  Both    English   Metric
« Previous Day
Next Day »
Daily Weekly Monthly Yearly Custom
  High: Low: Average:
Temperature: 73.4 °F /  23 °C 62.1 °F /  16.7 °C 67.8 °F /  19.9 °C
Dew Point: 71.1 °F /  21.7 °C 60.9 °F /  16.1 °C 65.1 °F /  18.4 °C
Humidity: 96 % 81 % 91 %
Wind Speed: 7.2 mph /  11.6 km/h - 1.4 mph /  2.3 km/h
Wind Gust: 12.7 mph /  20.4 km/h - -
Wind:- - SE
Pressure: 29.85 in /  1010.7 hPa 29.76 in /  1007.7 hPa -
Precipitation: 0.80 in /  20.32 mm    
Historical Graphs
 
 
Tabular Data for September 6, 2017
Time Temperature Dew Point Pressure Wind Wind Speed Wind Gust Humidity Rainfall Rate (Hourly)
00:02 70.0 °F /  21.1 °C 67.6 °F /  19.8 °C 29.77 in /  1008 hPa Calm     92 % 0.00 in /  0 mm
00:07 70.0 °F /  21.1 °C 67.6 °F /  19.8 °C 29.77 in /  1008 hPa Calm     92 % 0.00 in /  0 mm
00:12 69.9 °F /  21.1 °C 67.2 °F /  19.6 °C 29.77 in /  1008 hPa Calm     91 % 0.00 in /  0 mm
00:17 69.8 °F /  21 °C 67.1 °F /  19.5 °C 29.77 in /  1008 hPa Calm     91 % 0.00 in /  0 mm
00:27 69.7 °F /  20.9 °C 67.0 °F /  19.4 °C 29.77 in /  1008 hPa Calm     91 % 0.00 in /  0 mm
00:32 69.5 °F /  20.8 °C 66.8 °F /  19.3 °C 29.78 in /  1008.4 hPa Calm     91 % 0.00 in /  0 mm
00:37 69.5 °F /  20.8 °C 66.8 °F /  19.3 °C 29.77 in /  1008 hPa Calm     91 % 0.00 in /  0 mm
00:42 69.4 °F /  20.8 °C 67.0 °F /  19.4 °C 29.78 in /  1008.4 hPa Calm     92 % 0.00 in /  0 mm
00:47 69.3 °F /  20.7 °C 66.9 °F /  19.4 °C 29.78 in /  1008.4 hPa Calm     92 % 0.00 in /  0 mm
00:52 69.2 °F /  20.7 °C 66.8 °F /  19.3 °C 29.78 in /  1008.4 hPa Calm     92 % 0.00 in /  0 mm
00:57 69.2 °F /  20.7 °C 66.8 °F /  19.3 °C 29.79 in /  1008.7 hPa Calm     92 % 0.00 in /  0 mm
01:02 69.0 °F /  20.6 °C 66.3 °F /  19.1 °C 29.79 in /  1008.7 hPa Calm     91 % 0.00 in /  0 mm
01:07 69.0 °F /  20.6 °C 66.3 °F /  19.1 °C 29.79 in /  1008.7 hPa Calm     91 % 0.00 in /  0 mm
01:13 68.8 °F /  20.4 °C 66.1 °F /  18.9 °C 29.79 in /  1008.7 hPa Calm     91 % 0.00 in /  0 mm
01:18 68.8 °F /  20.4 °C 66.4 °F /  19.1 °C 29.78 in /  1008.4 hPa Calm     92 % 0.00 in /  0 mm
01:23 68.6 °F /  20.3 °C 66.2 °F /  19 °C 29.78 in /  1008.4 hPa Calm     92 % 0.00 in /  0 mm
01:28 68.6 °F /  20.3 °C 66.2 °F /  19 °C 29.78 in /  1008.4 hPa Calm     92 % 0.00 in /  0 mm
01:33 68.5 °F /  20.3 °C 66.4 °F /  19.1 °C 29.78 in /  1008.4 hPa Calm     93 % 0.00 in /  0 mm
01:38 68.4 °F /  20.2 °C 66.3 °F /  19.1 °C 29.78 in /  1008.4 hPa Calm     93 % 0.00 in /  0 mm
01:43 68.3 °F /  20.2 °C 66.2 °F /  19 °C 29.78 in /  1008.4 hPa Calm     93 % 0.00 in /  0 mm
01:48 68.2 °F /  20.1 °C 66.1 °F /  18.9 °C 29.78 in /  1008.4 hPa Calm     93 % 0.00 in /  0 mm
01:53 68.1 °F /  20.1 °C 66.0 °F /  18.9 °C 29.79 in /  1008.7 hPa Calm     93 % 0.00 in /  0 mm
01:58 68.1 °F /  20.1 °C 66.0 °F /  18.9 °C 29.78 in /  1008.4 hPa Calm     93 % 0.00 in /  0 mm
02:03 68.1 °F /  20.1 °C 66.3 °F /  19.1 °C 29.78 in /  1008.4 hPa Calm     94 % 0.00 in /  0 mm
02:13 68.1 °F /  20.1 °C 66.3 °F /  19.1 °C 29.79 in /  1008.7 hPa Calm     94 % 0.00 in /  0 mm
02:18 68.0 °F /  20 °C 66.2 °F /  19 °C 29.79 in /  1008.7 hPa Calm     94 % 0.00 in /  0 mm
02:20 68.0 °F /  20 °C 66.2 °F /  19 °C 29.79 in /  1008.7 hPa Calm     94 % 0.00 in /  0 mm
02:30 68.0 °F /  20 °C 66.2 °F /  19 °C 29.79 in /  1008.7 hPa Calm     94 % 0.00 in /  0 mm
02:35 68.0 °F /  20 °C 66.2 °F /  19 °C 29.78 in /  1008.4 hPa Calm     94 % 0.00 in /  0 mm
02:40 68.1 °F /  20.1 °C 66.3 °F /  19.1 °C 29.78 in /  1008.4 hPa Calm     94 % 0.00 in /  0 mm
02:45 68.0 °F /  20 °C 66.2 °F /  19 °C 29.78 in /  1008.4 hPa Calm     94 % 0.00 in /  0 mm
02:50 68.0 °F /  20 °C 66.2 °F /  19 °C 29.78 in /  1008.4 hPa Calm     94 % 0.00 in /  0 mm
02:55 68.0 °F /  20 °C 66.2 °F /  19 °C 29.78 in /  1008.4 hPa Calm     94 % 0.00 in /  0 mm
03:00 68.0 °F /  20 °C 66.2 °F /  19 °C 29.77 in /  1008 hPa Calm     94 % 0.00 in /  0 mm
03:05 68.0 °F /  20 °C 66.2 °F /  19 °C 29.77 in /  1008 hPa Calm     94 % 0.00 in /  0 mm
03:10 68.0 °F /  20 °C 66.2 °F /  19 °C 29.77 in /  1008 hPa Calm     94 % 0.00 in /  0 mm
03:15 67.9 °F /  19.9 °C 66.1 °F /  18.9 °C 29.77 in /  1008 hPa Calm     94 % 0.00 in /  0 mm
03:20 67.9 °F /  19.9 °C 66.1 °F /  18.9 °C 29.77 in /  1008 hPa Calm     94 % 0.00 in /  0 mm
03:25 67.9 °F /  19.9 °C 66.1 °F /  18.9 °C 29.77 in /  1008 hPa Calm     94 % 0.00 in /  0 mm
03:30 67.9 °F /  19.9 °C 66.1 °F /  18.9 °C 29.77 in /  1008 hPa Calm     94 % 0.00 in /  0 mm
03:35 67.9 °F /  19.9 °C 66.1 °F /  18.9 °C 29.77 in /  1008 hPa Calm     94 % 0.00 in /  0 mm
03:40 67.9 °F /  19.9 °C 66.1 °F /  18.9 °C 29.77 in /  1008 hPa Calm     94 % 0.00 in /  0 mm
03:50 67.9 °F /  19.9 °C 65.8 °F /  18.8 °C 29.77 in /  1008 hPa WNW 0.1 mph /  0.2 km/h   93 % 0.00 in /  0 mm
03:55 67.9 °F /  19.9 °C 65.8 °F /  18.8 °C 29.77 in /  1008 hPa Calm     93 % 0.00 in /  0 mm
04:01 67.9 °F /  19.9 °C 65.8 °F /  18.8 °C 29.77 in /  1008 hPa Calm     93 % 0.00 in /  0 mm
04:06 67.9 °F /  19.9 °C 65.8 °F /  18.8 °C 29.76 in /  1007.7 hPa Calm   2.0 mph /  3.2 km/h 93 % 0.00 in /  0 mm
04:11 67.9 °F /  19.9 °C 65.8 °F /  18.8 °C 29.76 in /  1007.7 hPa Calm   1.0 mph /  1.6 km/h 93 % 0.00 in /  0 mm
04:16 68.0 °F /  20 °C 65.9 °F /  18.8 °C 29.77 in /  1008 hPa Calm     93 % 0.00 in /  0 mm
04:20 68.0 °F /  20 °C 65.9 °F /  18.8 °C 29.77 in /  1008 hPa Calm     93 % 0.00 in /  0 mm
04:26 68.0 °F /  20 °C 65.6 °F /  18.7 °C 29.77 in /  1008 hPa Calm   1.0 mph /  1.6 km/h 92 % 0.00 in /  0 mm
04:31 68.0 °F /  20 °C 65.6 °F /  18.7 °C 29.77 in /  1008 hPa Calm   1.0 mph /  1.6 km/h 92 % 0.00 in /  0 mm
04:36 68.0 °F /  20 °C 65.6 °F /  18.7 °C 29.77 in /  1008 hPa Calm   1.0 mph /  1.6 km/h 92 % 0.00 in /  0 mm
04:41 68.0 °F /  20 °C 65.6 °F /  18.7 °C 29.77 in /  1008 hPa Calm   1.0 mph /  1.6 km/h 92 % 0.00 in /  0 mm
04:46 68.0 °F /  20 °C 65.6 °F /  18.7 °C 29.77 in /  1008 hPa Calm   1.0 mph /  1.6 km/h 92 % 0.00 in /  0 mm
04:51 68.0 °F /  20 °C 65.6 °F /  18.7 °C 29.77 in /  1008 hPa Calm     92 % 0.00 in /  0 mm
04:56 68.0 °F /  20 °C 65.6 °F /  18.7 °C 29.77 in /  1008 hPa Calm     92 % 0.00 in /  0 mm
05:01 68.0 °F /  20 °C 65.6 °F /  18.7 °C 29.77 in /  1008 hPa Calm     92 % 0.00 in /  0 mm
05:06 68.0 °F /  20 °C 65.6 °F /  18.7 °C 29.77 in /  1008 hPa Calm     92 % 0.00 in /  0 mm
05:11 68.0 °F /  20 °C 65.6 °F /  18.7 °C 29.77 in /  1008 hPa Calm     92 % 0.00 in /  0 mm
05:16 68.0 °F /  20 °C 65.6 °F /  18.7 °C 29.77 in /  1008 hPa Calm     92 % 0.00 in /  0 mm
05:21 68.0 °F /  20 °C 65.6 °F /  18.7 °C 29.77 in /  1008 hPa Calm     92 % 0.00 in /  0 mm
05:26 68.0 °F /  20 °C 65.6 °F /  18.7 °C 29.77 in /  1008 hPa Calm     92 % 0.00 in /  0 mm
05:31 68.1 °F /  20.1 °C 65.7 °F /  18.7 °C 29.77 in /  1008 hPa Calm     92 % 0.00 in /  0 mm
05:36 68.1 °F /  20.1 °C 65.7 °F /  18.7 °C 29.77 in /  1008 hPa Calm     92 % 0.00 in /  0 mm
05:41 68.1 °F /  20.1 °C 65.7 °F /  18.7 °C 29.77 in /  1008 hPa Calm     92 % 0.00 in /  0 mm
05:51 68.2 °F /  20.1 °C 65.8 °F /  18.8 °C 29.77 in /  1008 hPa SSE 0.9 mph /  1.4 km/h 3.5 mph /  5.6 km/h 92 % 0.00 in /  0 mm
05:56 68.2 °F /  20.1 °C 65.5 °F /  18.6 °C 29.77 in /  1008 hPa SSE 1.9 mph /  3.1 km/h 3.5 mph /  5.6 km/h 91 % 0.00 in /  0 mm
06:02 68.4 °F /  20.2 °C 65.7 °F /  18.7 °C 29.77 in /  1008 hPa SSE 1.2 mph /  1.9 km/h 3.0 mph /  4.8 km/h 91 % 0.00 in /  0 mm
06:07 68.6 °F /  20.3 °C 65.5 °F /  18.6 °C 29.76 in /  1007.7 hPa Calm   2.3 mph /  3.7 km/h 90 % 0.00 in /  0 mm
06:12 68.8 °F /  20.4 °C 65.7 °F /  18.7 °C 29.76 in /  1007.7 hPa Calm     90 % 0.00 in /  0 mm
06:17 68.9 °F /  20.5 °C 65.8 °F /  18.8 °C 29.76 in /  1007.7 hPa Calm   1.2 mph /  1.9 km/h 90 % 0.00 in /  0 mm
06:22 69.0 °F /  20.6 °C 65.9 °F /  18.8 °C 29.76 in /  1007.7 hPa Calm   1.2 mph /  1.9 km/h 90 % 0.00 in /  0 mm
06:32 69.2 °F /  20.7 °C 66.1 °F /  18.9 °C 29.77 in /  1008 hPa Calm     90 % 0.00 in /  0 mm
06:42 69.4 °F /  20.8 °C 66.7 °F /  19.3 °C 29.76 in /  1007.7 hPa SE 0.1 mph /  0.2 km/h 1.2 mph /  1.9 km/h 91 % 0.00 in /  0 mm
06:47 69.4 °F /  20.8 °C 66.7 °F /  19.3 °C 29.76 in /  1007.7 hPa Calm     91 % 0.00 in /  0 mm
06:52 69.5 °F /  20.8 °C 66.8 °F /  19.3 °C 29.76 in /  1007.7 hPa Calm     91 % 0.00 in /  0 mm
06:57 69.7 °F /  20.9 °C 67.3 °F /  19.6 °C 29.76 in /  1007.7 hPa SSE 0.2 mph /  0.3 km/h 2.3 mph /  3.7 km/h 92 % 0.00 in /  0 mm
06:59 69.8 °F /  21 °C 67.4 °F /  19.7 °C 29.77 in /  1008 hPa West 0.1 mph /  0.2 km/h 3.5 mph /  5.6 km/h 92 % 0.00 in /  0 mm
07:04 69.9 °F /  21.1 °C 67.8 °F /  19.9 °C 29.77 in /  1008 hPa WSW 0.4 mph /  0.6 km/h 3.5 mph /  5.6 km/h 93 % 0.00 in /  0 mm
07:09 70.1 °F /  21.2 °C 68.0 °F /  20 °C 29.77 in /  1008 hPa Calm   2.0 mph /  3.2 km/h 93 % 0.00 in /  0 mm
07:14 70.3 °F /  21.3 °C 68.5 °F /  20.3 °C 29.77 in /  1008 hPa WSW 0.1 mph /  0.2 km/h 1.0 mph /  1.6 km/h 94 % 0.00 in /  0 mm
07:19 70.5 °F /  21.4 °C 68.7 °F /  20.4 °C 29.77 in /  1008 hPa WSW 0.4 mph /  0.6 km/h 1.2 mph /  1.9 km/h 94 % 0.00 in /  0 mm
07:24 70.8 °F /  21.6 °C 69.0 °F /  20.6 °C 29.77 in /  1008 hPa Calm     94 % 0.00 in /  0 mm
07:29 71.0 °F /  21.7 °C 69.5 °F /  20.8 °C 29.77 in /  1008 hPa Calm   2.3 mph /  3.7 km/h 95 % 0.00 in /  0 mm
07:35 71.2 °F /  21.8 °C 69.7 °F /  20.9 °C 29.78 in /  1008.4 hPa West 2.5 mph /  4 km/h 4.6 mph /  7.4 km/h 95 % 0.00 in /  0 mm
07:40 71.3 °F /  21.8 °C 69.8 °F /  21 °C 29.78 in /  1008.4 hPa Calm   2.3 mph /  3.7 km/h 95 % 0.00 in /  0 mm
07:45 71.4 °F /  21.9 °C 69.9 °F /  21.1 °C 29.78 in /  1008.4 hPa WSW 0.4 mph /  0.6 km/h 2.3 mph /  3.7 km/h 95 % 0.00 in /  0 mm
07:55 71.6 °F /  22 °C 70.1 °F /  21.2 °C 29.78 in /  1008.4 hPa WSW 0.1 mph /  0.2 km/h 1.2 mph /  1.9 km/h 95 % 0.00 in /  0 mm
08:00 71.8 °F /  22.1 °C 70.3 °F /  21.3 °C 29.78 in /  1008.4 hPa WSW 0.1 mph /  0.2 km/h 1.2 mph /  1.9 km/h 95 % 0.00 in /  0 mm
08:05 71.8 °F /  22.1 °C 70.3 °F /  21.3 °C 29.78 in /  1008.4 hPa West 1.1 mph /  1.8 km/h 2.3 mph /  3.7 km/h 95 % 0.00 in /  0 mm
08:10 71.9 °F /  22.2 °C 70.4 °F /  21.3 °C 29.78 in /  1008.4 hPa NW 1.7 mph /  2.7 km/h 4.0 mph /  6.4 km/h 95 % 0.00 in /  0 mm
08:15 71.9 °F /  22.2 °C 70.1 °F /  21.2 °C 29.78 in /  1008.4 hPa WNW 1.5 mph /  2.4 km/h 3.5 mph /  5.6 km/h 94 % 0.00 in /  0 mm
08:20 71.9 °F /  22.2 °C 70.1 °F /  21.2 °C 29.79 in /  1008.7 hPa WNW 0.1 mph /  0.2 km/h 1.0 mph /  1.6 km/h 94 % 0.00 in /  0 mm
08:25 71.8 °F /  22.1 °C 70.0 °F /  21.1 °C 29.78 in /  1008.4 hPa Calm   2.0 mph /  3.2 km/h 94 % 0.00 in /  0 mm
08:30 71.7 °F /  22.1 °C 69.6 °F /  20.9 °C 29.78 in /  1008.4 hPa Calm   4.0 mph /  6.4 km/h 93 % 0.00 in /  0 mm
08:35 71.6 °F /  22 °C 69.5 °F /  20.8 °C 29.79 in /  1008.7 hPa WNW 0.4 mph /  0.6 km/h 2.0 mph /  3.2 km/h 93 % 0.00 in /  0 mm
08:40 71.5 °F /  21.9 °C 69.1 °F /  20.6 °C 29.79 in /  1008.7 hPa Calm     92 % 0.01 in /  0.25 mm
08:45 71.3 °F /  21.8 °C 68.9 °F /  20.5 °C 29.78 in /  1008.4 hPa Calm     92 % 0.01 in /  0.25 mm
08:50 71.2 °F /  21.8 °C 68.8 °F /  20.4 °C 29.78 in /  1008.4 hPa Calm     92 % 0.00 in /  0 mm
08:55 71.1 °F /  21.7 °C 68.7 °F /  20.4 °C 29.78 in /  1008.4 hPa Calm     92 % 0.00 in /  0 mm
09:01 71.0 °F /  21.7 °C 68.6 °F /  20.3 °C 29.78 in /  1008.4 hPa Calm     92 % 0.01 in /  0.25 mm
09:06 70.9 °F /  21.6 °C 68.5 °F /  20.3 °C 29.79 in /  1008.7 hPa Calm     92 % 0.01 in /  0.25 mm
09:11 70.8 °F /  21.6 °C 68.4 °F /  20.2 °C 29.79 in /  1008.7 hPa Calm     92 % 0.01 in /  0.25 mm
09:16 70.8 °F /  21.6 °C 68.4 °F /  20.2 °C 29.79 in /  1008.7 hPa Calm     92 % 0.01 in /  0.25 mm
09:21 70.7 °F /  21.5 °C 68.3 °F /  20.2 °C 29.79 in /  1008.7 hPa Calm     92 % 0.01 in /  0.25 mm
09:26 70.6 °F /  21.4 °C 68.2 °F /  20.1 °C 29.80 in /  1009 hPa Calm     92 % 0.01 in /  0.25 mm
09:31 70.6 °F /  21.4 °C 68.5 °F /  20.3 °C 29.80 in /  1009 hPa Calm     93 % 0.01 in /  0.25 mm
09:36 70.7 °F /  21.5 °C 68.6 °F /  20.3 °C 29.80 in /  1009 hPa Calm     93 % 0.01 in /  0.25 mm
09:37 70.7 °F /  21.5 °C 68.6 °F /  20.3 °C 29.80 in /  1009 hPa Calm     93 % 0.01 in /  0.25 mm
09:42 70.9 °F /  21.6 °C 69.1 °F /  20.6 °C 29.80 in /  1009 hPa WNW 1.1 mph /  1.8 km/h 3.5 mph /  5.6 km/h 94 % 0.00 in /  0 mm
09:47 71.1 °F /  21.7 °C 69.3 °F /  20.7 °C 29.80 in /  1009 hPa North 0.7 mph /  1.1 km/h 2.3 mph /  3.7 km/h 94 % 0.00 in /  0 mm
09:52 71.3 °F /  21.8 °C 69.5 °F /  20.8 °C 29.80 in /  1009 hPa North 0.1 mph /  0.2 km/h 2.0 mph /  3.2 km/h 94 % 0.00 in /  0 mm
09:57 71.4 °F /  21.9 °C 69.6 °F /  20.9 °C 29.81 in /  1009.4 hPa WNW 2.0 mph /  3.2 km/h 3.5 mph /  5.6 km/h 94 % 0.00 in /  0 mm
10:02 71.6 °F /  22 °C 69.8 °F /  21 °C 29.81 in /  1009.4 hPa WNW 0.2 mph /  0.3 km/h 1.2 mph /  1.9 km/h 94 % 0.00 in /  0 mm
10:07 71.8 °F /  22.1 °C 70.0 °F /  21.1 °C 29.82 in /  1009.7 hPa WNW 0.4 mph /  0.6 km/h 3.5 mph /  5.6 km/h 94 % 0.00 in /  0 mm
10:12 71.9 °F /  22.2 °C 70.1 °F /  21.2 °C 29.82 in /  1009.7 hPa WNW 1.0 mph /  1.6 km/h 3.5 mph /  5.6 km/h 94 % 0.00 in /  0 mm
10:17 72.0 °F /  22.2 °C 69.9 °F /  21.1 °C 29.82 in /  1009.7 hPa WNW 1.0 mph /  1.6 km/h 2.3 mph /  3.7 km/h 93 % 0.00 in /  0 mm
10:22 72.0 °F /  22.2 °C 69.9 °F /  21.1 °C 29.83 in /  1010 hPa Calm     93 % 0.00 in /  0 mm
10:27 72.1 °F /  22.3 °C 70.0 °F /  21.1 °C 29.83 in /  1010 hPa WSW 0.2 mph /  0.3 km/h 3.5 mph /  5.6 km/h 93 % 0.00 in /  0 mm
10:30 72.1 °F /  22.3 °C 69.6 °F /  20.9 °C 29.84 in /  1010.4 hPa Calm   1.2 mph /  1.9 km/h 92 % 0.00 in /  0 mm
10:35 72.0 °F /  22.2 °C 69.2 °F /  20.7 °C 29.82 in /  1009.7 hPa Calm   1.0 mph /  1.6 km/h 91 % 0.00 in /  0 mm
10:40 72.0 °F /  22.2 °C 69.2 °F /  20.7 °C 29.82 in /  1009.7 hPa Calm     91 % 0.00 in /  0 mm
10:45 72.0 °F /  22.2 °C 69.2 °F /  20.7 °C 29.81 in /  1009.4 hPa Calm   3.5 mph /  5.6 km/h 91 % 0.01 in /  0.25 mm
10:50 72.2 °F /  22.3 °C 70.1 °F /  21.2 °C 29.81 in /  1009.4 hPa NNW 0.6 mph /  1 km/h 3.5 mph /  5.6 km/h 93 % 0.01 in /  0.25 mm
10:55 72.5 °F /  22.5 °C 70.7 °F /  21.5 °C 29.81 in /  1009.4 hPa North 1.2 mph /  1.9 km/h 3.5 mph /  5.6 km/h 94 % 0.01 in /  0.25 mm
11:00 72.7 °F /  22.6 °C 70.6 °F /  21.4 °C 29.81 in /  1009.4 hPa WNW 1.1 mph /  1.8 km/h 2.0 mph /  3.2 km/h 93 % 0.01 in /  0.25 mm
11:05 72.9 °F /  22.7 °C 71.1 °F /  21.7 °C 29.81 in /  1009.4 hPa North 0.9 mph /  1.4 km/h 3.0 mph /  4.8 km/h 94 % 0.01 in /  0.25 mm
11:10 73.0 °F /  22.8 °C 70.9 °F /  21.6 °C 29.81 in /  1009.4 hPa North 1.5 mph /  2.4 km/h 3.5 mph /  5.6 km/h 93 % 0.01 in /  0.25 mm
11:15 73.2 °F /  22.9 °C 71.1 °F /  21.7 °C 29.81 in /  1009.4 hPa NW 0.5 mph /  0.8 km/h 3.0 mph /  4.8 km/h 93 % 0.01 in /  0.25 mm
11:20 73.3 °F /  22.9 °C 70.8 °F /  21.6 °C 29.81 in /  1009.4 hPa WNW 2.2 mph /  3.5 km/h 3.5 mph /  5.6 km/h 92 % 0.01 in /  0.25 mm
11:25 73.4 °F /  23 °C 70.9 °F /  21.6 °C 29.81 in /  1009.4 hPa Calm     92 % 0.01 in /  0.25 mm
11:30 73.4 °F /  23 °C 70.9 °F /  21.6 °C 29.82 in /  1009.7 hPa West 0.3 mph /  0.5 km/h 4.6 mph /  7.4 km/h 92 % 0.01 in /  0.25 mm
11:35 73.4 °F /  23 °C 70.6 °F /  21.4 °C 29.82 in /  1009.7 hPa North 0.4 mph /  0.6 km/h   91 % 0.01 in /  0.25 mm
11:40 73.4 °F /  23 °C 70.6 °F /  21.4 °C 29.82 in /  1009.7 hPa Calm   1.2 mph /  1.9 km/h 91 % 0.01 in /  0.25 mm
11:45 73.3 °F /  22.9 °C 70.5 °F /  21.4 °C 29.82 in /  1009.7 hPa WNW 0.6 mph /  1 km/h 4.6 mph /  7.4 km/h 91 % 0.00 in /  0 mm
11:50 73.3 °F /  22.9 °C 70.2 °F /  21.2 °C 29.82 in /  1009.7 hPa NW 0.5 mph /  0.8 km/h 3.5 mph /  5.6 km/h 90 % 0.00 in /  0 mm
11:55 73.2 °F /  22.9 °C 70.1 °F /  21.2 °C 29.82 in /  1009.7 hPa WNW 0.1 mph /  0.2 km/h 5.0 mph /  8 km/h 90 % 0.00 in /  0 mm
12:00 72.8 °F /  22.7 °C 68.7 °F /  20.4 °C 29.82 in /  1009.7 hPa NNW 5.1 mph /  8.2 km/h 10.4 mph /  16.7 km/h 87 % 0.00 in /  0 mm
12:05 72.1 °F /  22.3 °C 67.0 °F /  19.4 °C 29.81 in /  1009.4 hPa NNE 6.0 mph /  9.7 km/h 10.4 mph /  16.7 km/h 84 % 0.00 in /  0 mm
12:06 72.1 °F /  22.3 °C 67.0 °F /  19.4 °C 29.81 in /  1009.4 hPa NNE 6.4 mph /  10.3 km/h 10.4 mph /  16.7 km/h 84 % 0.00 in /  0 mm
12:11 71.2 °F /  21.8 °C 66.1 °F /  18.9 °C 29.82 in /  1009.7 hPa North 5.4 mph /  8.7 km/h 11.5 mph /  18.5 km/h 84 % 0.00 in /  0 mm
12:16 70.7 °F /  21.5 °C 65.6 °F /  18.7 °C 29.82 in /  1009.7 hPa North 7.1 mph /  11.4 km/h 10.4 mph /  16.7 km/h 84 % 0.00 in /  0 mm
12:21 70.2 °F /  21.2 °C 65.1 °F /  18.4 °C 29.82 in /  1009.7 hPa North 6.0 mph /  9.7 km/h 10.4 mph /  16.7 km/h 84 % 0.00 in /  0 mm
12:26 69.8 °F /  21 °C 64.7 °F /  18.2 °C 29.82 in /  1009.7 hPa North 6.3 mph /  10.1 km/h 10.4 mph /  16.7 km/h 84 % 0.00 in /  0 mm
12:31 69.5 °F /  20.8 °C 64.5 °F /  18.1 °C 29.81 in /  1009.4 hPa North 5.3 mph /  8.5 km/h 11.5 mph /  18.5 km/h 84 % 0.00 in /  0 mm
12:36 69.4 °F /  20.8 °C 64.7 °F /  18.2 °C 29.82 in /  1009.7 hPa NNE 3.6 mph /  5.8 km/h 6.9 mph /  11.1 km/h 85 % 0.00 in /  0 mm
12:41 69.2 °F /  20.7 °C 64.5 °F /  18.1 °C 29.82 in /  1009.7 hPa North 4.4 mph /  7.1 km/h 9.2 mph /  14.8 km/h 85 % 0.00 in /  0 mm
12:46 69.0 °F /  20.6 °C 64.3 °F /  17.9 °C 29.82 in /  1009.7 hPa NNW 2.2 mph /  3.5 km/h 5.0 mph /  8 km/h 85 % 0.00 in /  0 mm
12:51 68.8 °F /  20.4 °C 64.4 °F /  18 °C 29.83 in /  1010 hPa NNE 4.4 mph /  7.1 km/h 4.6 mph /  7.4 km/h 86 % 0.00 in /  0 mm
12:56 68.7 °F /  20.4 °C 64.3 °F /  17.9 °C 29.83 in /  1010 hPa NNE 1.5 mph /  2.4 km/h 2.0 mph /  3.2 km/h 86 % 0.00 in /  0 mm
13:01 68.6 °F /  20.3 °C 64.6 °F /  18.1 °C 29.83 in /  1010 hPa NNE 0.1 mph /  0.2 km/h 1.2 mph /  1.9 km/h 87 % 0.00 in /  0 mm
13:06 68.5 °F /  20.3 °C 64.5 °F /  18.1 °C 29.82 in /  1009.7 hPa North 2.5 mph /  4 km/h 5.8 mph /  9.3 km/h 87 % 0.00 in /  0 mm
13:12 68.5 °F /  20.3 °C 64.5 °F /  18.1 °C 29.82 in /  1009.7 hPa North 1.8 mph /  2.9 km/h 3.5 mph /  5.6 km/h 87 % 0.00 in /  0 mm
13:17 68.5 °F /  20.3 °C 64.5 °F /  18.1 °C 29.82 in /  1009.7 hPa NNE 2.5 mph /  4 km/h 3.5 mph /  5.6 km/h 87 % 0.00 in /  0 mm
13:22 68.6 °F /  20.3 °C 64.6 °F /  18.1 °C 29.82 in /  1009.7 hPa ENE 2.0 mph /  3.2 km/h 5.8 mph /  9.3 km/h 87 % 0.00 in /  0 mm
13:27 68.8 °F /  20.4 °C 65.1 °F /  18.4 °C 29.82 in /  1009.7 hPa NNW 2.9 mph /  4.7 km/h 4.6 mph /  7.4 km/h 88 % 0.00 in /  0 mm
13:32 69.1 °F /  20.6 °C 65.4 °F /  18.6 °C 29.82 in /  1009.7 hPa NNE 1.1 mph /  1.8 km/h 4.6 mph /  7.4 km/h 88 % 0.00 in /  0 mm
13:37 69.4 °F /  20.8 °C 65.4 °F /  18.6 °C 29.82 in /  1009.7 hPa NE 1.8 mph /  2.9 km/h 3.5 mph /  5.6 km/h 87 % 0.00 in /  0 mm
13:42 69.7 °F /  20.9 °C 65.3 °F /  18.5 °C 29.82 in /  1009.7 hPa ENE 1.3 mph /  2.1 km/h 4.0 mph /  6.4 km/h 86 % 0.00 in /  0 mm
13:47 70.1 °F /  21.2 °C 65.4 °F /  18.6 °C 29.82 in /  1009.7 hPa NNE 3.3 mph /  5.3 km/h 6.9 mph /  11.1 km/h 85 % 0.00 in /  0 mm
13:52 70.3 °F /  21.3 °C 65.2 °F /  18.4 °C 29.82 in /  1009.7 hPa North 1.5 mph /  2.4 km/h 3.5 mph /  5.6 km/h 84 % 0.00 in /  0 mm
13:57 70.5 °F /  21.4 °C 65.1 °F /  18.4 °C 29.82 in /  1009.7 hPa NE 1.7 mph /  2.7 km/h 3.5 mph /  5.6 km/h 83 % 0.00 in /  0 mm
14:02 70.6 °F /  21.4 °C 65.5 °F /  18.6 °C 29.82 in /  1009.7 hPa North 0.9 mph /  1.4 km/h 3.5 mph /  5.6 km/h 84 % 0.00 in /  0 mm
14:07 70.7 °F /  21.5 °C 65.3 °F /  18.5 °C 29.82 in /  1009.7 hPa NNE 3.6 mph /  5.8 km/h 6.0 mph /  9.7 km/h 83 % 0.00 in /  0 mm
14:12 70.7 °F /  21.5 °C 64.9 °F /  18.3 °C 29.82 in /  1009.7 hPa North 1.1 mph /  1.8 km/h 4.0 mph /  6.4 km/h 82 % 0.00 in /  0 mm
14:17 70.7 °F /  21.5 °C 64.9 °F /  18.3 °C 29.82 in /  1009.7 hPa North 1.2 mph /  1.9 km/h 3.5 mph /  5.6 km/h 82 % 0.00 in /  0 mm
14:23 70.6 °F /  21.4 °C 64.8 °F /  18.2 °C 29.83 in /  1010 hPa North 2.3 mph /  3.7 km/h 4.6 mph /  7.4 km/h 82 % 0.00 in /  0 mm
14:28 70.6 °F /  21.4 °C 64.8 °F /  18.2 °C 29.83 in /  1010 hPa NNE 2.4 mph /  3.9 km/h 3.0 mph /  4.8 km/h 82 % 0.00 in /  0 mm
14:33 70.4 °F /  21.3 °C 64.6 °F /  18.1 °C 29.83 in /  1010 hPa NNE 2.6 mph /  4.2 km/h 4.6 mph /  7.4 km/h 82 % 0.00 in /  0 mm
14:38 70.1 °F /  21.2 °C 64.3 °F /  17.9 °C 29.83 in /  1010 hPa North 1.6 mph /  2.6 km/h 3.5 mph /  5.6 km/h 82 % 0.00 in /  0 mm
14:43 70.0 °F /  21.1 °C 63.9 °F /  17.7 °C 29.83 in /  1010 hPa North 4.1 mph /  6.6 km/h 4.6 mph /  7.4 km/h 81 % 0.00 in /  0 mm
14:48 69.9 °F /  21.1 °C 63.8 °F /  17.7 °C 29.82 in /  1009.7 hPa NNE 2.6 mph /  4.2 km/h 6.9 mph /  11.1 km/h 81 % 0.00 in /  0 mm
14:53 69.8 °F /  21 °C 64.1 °F /  17.8 °C 29.83 in /  1010 hPa NNW 0.3 mph /  0.5 km/h 2.3 mph /  3.7 km/h 82 % 0.00 in /  0 mm
14:58 69.7 °F /  20.9 °C 64.0 °F /  17.8 °C 29.82 in /  1009.7 hPa North 2.8 mph /  4.5 km/h 5.8 mph /  9.3 km/h 82 % 0.00 in /  0 mm
15:03 69.6 °F /  20.9 °C 63.9 °F /  17.7 °C 29.82 in /  1009.7 hPa NNW 3.3 mph /  5.3 km/h 4.0 mph /  6.4 km/h 82 % 0.00 in /  0 mm
15:08 69.5 °F /  20.8 °C 64.1 °F /  17.8 °C 29.81 in /  1009.4 hPa NE 2.0 mph /  3.2 km/h 4.0 mph /  6.4 km/h 83 % 0.00 in /  0 mm
15:14 69.5 °F /  20.8 °C 64.5 °F /  18.1 °C 29.81 in /  1009.4 hPa NE 0.6 mph /  1 km/h 3.5 mph /  5.6 km/h 84 % 0.00 in /  0 mm
15:19 69.6 °F /  20.9 °C 64.9 °F /  18.3 °C 29.81 in /  1009.4 hPa NNE 2.1 mph /  3.4 km/h 4.6 mph /  7.4 km/h 85 % 0.00 in /  0 mm
15:24 69.7 °F /  20.9 °C 65.0 °F /  18.3 °C 29.81 in /  1009.4 hPa NE 0.8 mph /  1.3 km/h 2.0 mph /  3.2 km/h 85 % 0.00 in /  0 mm
15:29 69.7 °F /  20.9 °C 65.0 °F /  18.3 °C 29.81 in /  1009.4 hPa NE 0.5 mph /  0.8 km/h 1.2 mph /  1.9 km/h 85 % 0.00 in /  0 mm
15:34 69.7 °F /  20.9 °C 64.6 °F /  18.1 °C 29.81 in /  1009.4 hPa NE 0.1 mph /  0.2 km/h 1.2 mph /  1.9 km/h 84 % 0.00 in /  0 mm
15:39 69.7 °F /  20.9 °C 64.6 °F /  18.1 °C 29.81 in /  1009.4 hPa NE 0.9 mph /  1.4 km/h 3.5 mph /  5.6 km/h 84 % 0.00 in /  0 mm
15:44 69.6 °F /  20.9 °C 64.5 °F /  18.1 °C 29.81 in /  1009.4 hPa NE 0.2 mph /  0.3 km/h 1.2 mph /  1.9 km/h 84 % 0.00 in /  0 mm
15:49 69.5 °F /  20.8 °C 64.5 °F /  18.1 °C 29.81 in /  1009.4 hPa ENE 0.2 mph /  0.3 km/h 1.2 mph /  1.9 km/h 84 % 0.00 in /  0 mm
15:54 69.4 °F /  20.8 °C 64.4 °F /  18 °C 29.81 in /  1009.4 hPa ENE 0.8 mph /  1.3 km/h 2.3 mph /  3.7 km/h 84 % 0.00 in /  0 mm
15:59 69.3 °F /  20.7 °C 64.6 °F /  18.1 °C 29.81 in /  1009.4 hPa NNE 2.7 mph /  4.3 km/h 5.0 mph /  8 km/h 85 % 0.00 in /  0 mm
16:04 69.2 °F /  20.7 °C 64.5 °F /  18.1 °C 29.82 in /  1009.7 hPa North 2.4 mph /  3.9 km/h 4.6 mph /  7.4 km/h 85 % 0.00 in /  0 mm
16:10 69.2 °F /  20.7 °C 64.5 °F /  18.1 °C 29.82 in /  1009.7 hPa NNE 3.5 mph /  5.6 km/h 5.8 mph /  9.3 km/h 85 % 0.00 in /  0 mm
16:15 69.0 °F /  20.6 °C 64.3 °F /  17.9 °C 29.82 in /  1009.7 hPa North 1.8 mph /  2.9 km/h 5.0 mph /  8 km/h 85 % 0.00 in /  0 mm
16:20 68.9 °F /  20.5 °C 64.2 °F /  17.9 °C 29.82 in /  1009.7 hPa North 2.5 mph /  4 km/h 6.0 mph /  9.7 km/h 85 % 0.00 in /  0 mm
16:25 68.8 °F /  20.4 °C 64.4 °F /  18 °C 29.82 in /  1009.7 hPa ENE 1.7 mph /  2.7 km/h 3.5 mph /  5.6 km/h 86 % 0.01 in /  0.25 mm
16:30 68.5 °F /  20.3 °C 64.1 °F /  17.8 °C 29.82 in /  1009.7 hPa NE 1.9 mph /  3.1 km/h 4.0 mph /  6.4 km/h 86 % 0.05 in /  1.27 mm
16:35 68.4 °F /  20.2 °C 64.0 °F /  17.8 °C 29.82 in /  1009.7 hPa NE 0.5 mph /  0.8 km/h 2.3 mph /  3.7 km/h 86 % 0.08 in /  2.03 mm
16:40 68.1 °F /  20.1 °C 64.1 °F /  17.8 °C 29.81 in /  1009.4 hPa NE 0.8 mph /  1.3 km/h 2.3 mph /  3.7 km/h 87 % 0.09 in /  2.29 mm
16:45 67.9 °F /  19.9 °C 64.2 °F /  17.9 °C 29.81 in /  1009.4 hPa North 0.2 mph /  0.3 km/h 2.0 mph /  3.2 km/h 88 % 0.11 in /  2.79 mm
16:50 67.7 °F /  19.8 °C 64.3 °F /  17.9 °C 29.81 in /  1009.4 hPa North 4.8 mph /  7.7 km/h 6.9 mph /  11.1 km/h 89 % 0.11 in /  2.79 mm
16:55 67.5 °F /  19.7 °C 64.1 °F /  17.8 °C 29.82 in /  1009.7 hPa NNE 2.1 mph /  3.4 km/h 4.6 mph /  7.4 km/h 89 % 0.11 in /  2.79 mm
17:00 67.3 °F /  19.6 °C 63.9 °F /  17.7 °C 29.83 in /  1010 hPa North 1.8 mph /  2.9 km/h 4.6 mph /  7.4 km/h 89 % 0.11 in /  2.79 mm
17:05 67.0 °F /  19.4 °C 63.6 °F /  17.6 °C 29.83 in /  1010 hPa North 3.4 mph /  5.5 km/h 5.8 mph /  9.3 km/h 89 % 0.11 in /  2.79 mm
17:10 66.7 °F /  19.3 °C 63.4 °F /  17.4 °C 29.83 in /  1010 hPa NNE 3.3 mph /  5.3 km/h 6.9 mph /  11.1 km/h 89 % 0.11 in /  2.79 mm
17:15 66.5 °F /  19.2 °C 63.5 °F /  17.5 °C 29.83 in /  1010 hPa NNE 6.0 mph /  9.7 km/h 10.4 mph /  16.7 km/h 90 % 0.11 in /  2.79 mm
17:20 66.1 °F /  18.9 °C 63.1 °F /  17.3 °C 29.84 in /  1010.4 hPa North 3.7 mph /  6 km/h 7.0 mph /  11.3 km/h 90 % 0.11 in /  2.79 mm
17:25 65.7 °F /  18.7 °C 62.7 °F /  17.1 °C 29.83 in /  1010 hPa West 3.5 mph /  5.6 km/h 6.9 mph /  11.1 km/h 90 % 0.10 in /  2.54 mm
17:30 65.5 °F /  18.6 °C 62.5 °F /  16.9 °C 29.83 in /  1010 hPa NE 5.8 mph /  9.3 km/h 9.2 mph /  14.8 km/h 90 % 0.06 in /  1.52 mm
17:35 65.2 °F /  18.4 °C 62.5 °F /  16.9 °C 29.83 in /  1010 hPa North 6.2 mph /  10 km/h 12.7 mph /  20.4 km/h 91 % 0.03 in /  0.76 mm
17:40 65.0 °F /  18.3 °C 62.6 °F /  17 °C 29.83 in /  1010 hPa North 7.2 mph /  11.6 km/h 10.4 mph /  16.7 km/h 92 % 0.03 in /  0.76 mm
17:45 64.8 °F /  18.2 °C 62.4 °F /  16.9 °C 29.83 in /  1010 hPa North 4.6 mph /  7.4 km/h 7.0 mph /  11.3 km/h 92 % 0.01 in /  0.25 mm
17:50 64.6 °F /  18.1 °C 62.2 °F /  16.8 °C 29.84 in /  1010.4 hPa NNE 4.1 mph /  6.6 km/h 7.0 mph /  11.3 km/h 92 % 0.01 in /  0.25 mm
17:55 64.4 °F /  18 °C 62.0 °F /  16.7 °C 29.84 in /  1010.4 hPa NNE 5.7 mph /  9.2 km/h 9.2 mph /  14.8 km/h 92 % 0.01 in /  0.25 mm
18:00 64.3 °F /  17.9 °C 61.9 °F /  16.6 °C 29.84 in /  1010.4 hPa NNE 7.1 mph /  11.4 km/h 9.2 mph /  14.8 km/h 92 % 0.01 in /  0.25 mm
18:05 64.1 °F /  17.8 °C 61.7 °F /  16.5 °C 29.84 in /  1010.4 hPa NNE 6.1 mph /  9.8 km/h 10.4 mph /  16.7 km/h 92 % 0.01 in /  0.25 mm
18:10 64.0 °F /  17.8 °C 61.9 °F /  16.6 °C 29.84 in /  1010.4 hPa NNW 6.7 mph /  10.8 km/h 8.1 mph /  13 km/h 93 % 0.01 in /  0.25 mm
18:15 63.9 °F /  17.7 °C 61.8 °F /  16.6 °C 29.84 in /  1010.4 hPa North 4.7 mph /  7.6 km/h 6.0 mph /  9.7 km/h 93 % 0.02 in /  0.51 mm
18:20 63.8 °F /  17.7 °C 61.7 °F /  16.5 °C 29.84 in /  1010.4 hPa NNE 3.9 mph /  6.3 km/h 9.2 mph /  14.8 km/h 93 % 0.02 in /  0.51 mm
18:25 63.7 °F /  17.6 °C 61.6 °F /  16.4 °C 29.84 in /  1010.4 hPa North 5.8 mph /  9.3 km/h 6.9 mph /  11.1 km/h 93 % 0.02 in /  0.51 mm
18:30 63.5 °F /  17.5 °C 61.4 °F /  16.3 °C 29.85 in /  1010.7 hPa North 6.0 mph /  9.7 km/h 10.4 mph /  16.7 km/h 93 % 0.02 in /  0.51 mm
18:35 63.4 °F /  17.4 °C 61.3 °F /  16.3 °C 29.84 in /  1010.4 hPa North 6.5 mph /  10.5 km/h 11.5 mph /  18.5 km/h 93 % 0.02 in /  0.51 mm
18:41 63.4 °F /  17.4 °C 61.3 °F /  16.3 °C 29.85 in /  1010.7 hPa North 3.0 mph /  4.8 km/h 5.8 mph /  9.3 km/h 93 % 0.01 in /  0.25 mm
18:45 63.4 °F /  17.4 °C 61.3 °F /  16.3 °C 29.84 in /  1010.4 hPa NNE 5.9 mph /  9.5 km/h 8.1 mph /  13 km/h 93 % 0.01 in /  0.25 mm
18:51 63.4 °F /  17.4 °C 61.6 °F /  16.4 °C 29.84 in /  1010.4 hPa NNE 3.8 mph /  6.1 km/h 6.0 mph /  9.7 km/h 94 % 0.01 in /  0.25 mm
18:56 63.4 °F /  17.4 °C 61.6 °F /  16.4 °C 29.84 in /  1010.4 hPa North 4.5 mph /  7.2 km/h 6.9 mph /  11.1 km/h 94 % 0.01 in /  0.25 mm
19:01 63.3 °F /  17.4 °C 61.5 °F /  16.4 °C 29.84 in /  1010.4 hPa NNE 6.2 mph /  10 km/h 10.0 mph /  16.1 km/h 94 % 0.01 in /  0.25 mm
19:06 63.3 °F /  17.4 °C 61.5 °F /  16.4 °C 29.83 in /  1010 hPa North 5.1 mph /  8.2 km/h 10.4 mph /  16.7 km/h 94 % 0.01 in /  0.25 mm
19:11 63.3 °F /  17.4 °C 61.5 °F /  16.4 °C 29.84 in /  1010.4 hPa NNE 4.0 mph /  6.4 km/h 5.8 mph /  9.3 km/h 94 % 0.01 in /  0.25 mm
19:16 63.3 °F /  17.4 °C 61.5 °F /  16.4 °C 29.83 in /  1010 hPa NE 1.1 mph /  1.8 km/h 3.5 mph /  5.6 km/h 94 % 0.00 in /  0 mm
19:21 63.3 °F /  17.4 °C 61.5 °F /  16.4 °C 29.83 in /  1010 hPa NE 0.9 mph /  1.4 km/h 4.6 mph /  7.4 km/h 94 % 0.00 in /  0 mm
19:26 63.3 °F /  17.4 °C 61.5 °F /  16.4 °C 29.83 in /  1010 hPa NE 2.1 mph /  3.4 km/h 4.6 mph /  7.4 km/h 94 % 0.00 in /  0 mm
19:31 63.3 °F /  17.4 °C 61.5 °F /  16.4 °C 29.83 in /  1010 hPa NNE 0.6 mph /  1 km/h 1.2 mph /  1.9 km/h 94 % 0.00 in /  0 mm
19:36 63.3 °F /  17.4 °C 61.5 °F /  16.4 °C 29.83 in /  1010 hPa NE 2.1 mph /  3.4 km/h 3.5 mph /  5.6 km/h 94 % 0.00 in /  0 mm
19:41 63.3 °F /  17.4 °C 61.5 °F /  16.4 °C 29.83 in /  1010 hPa NE 0.7 mph /  1.1 km/h 4.0 mph /  6.4 km/h 94 % 0.00 in /  0 mm
19:46 63.3 °F /  17.4 °C 61.5 °F /  16.4 °C 29.84 in /  1010.4 hPa ENE 1.8 mph /  2.9 km/h 3.5 mph /  5.6 km/h 94 % 0.00 in /  0 mm
19:51 63.3 °F /  17.4 °C 61.5 °F /  16.4 °C 29.84 in /  1010.4 hPa NNW 1.5 mph /  2.4 km/h 5.0 mph /  8 km/h 94 % 0.00 in /  0 mm
19:56 63.3 °F /  17.4 °C 61.5 °F /  16.4 °C 29.83 in /  1010 hPa NNE 2.6 mph /  4.2 km/h 4.6 mph /  7.4 km/h 94 % 0.00 in /  0 mm
20:01 63.4 °F /  17.4 °C 61.6 °F /  16.4 °C 29.83 in /  1010 hPa NNE 1.5 mph /  2.4 km/h 3.5 mph /  5.6 km/h 94 % 0.00 in /  0 mm
20:06 63.4 °F /  17.4 °C 61.6 °F /  16.4 °C 29.83 in /  1010 hPa NNE 2.8 mph /  4.5 km/h 5.8 mph /  9.3 km/h 94 % 0.00 in /  0 mm
20:11 63.4 °F /  17.4 °C 61.6 °F /  16.4 °C 29.83 in /  1010 hPa North 1.5 mph /  2.4 km/h 3.0 mph /  4.8 km/h 94 % 0.00 in /  0 mm
20:16 63.4 °F /  17.4 °C 61.6 °F /  16.4 °C 29.84 in /  1010.4 hPa North 1.1 mph /  1.8 km/h 3.5 mph /  5.6 km/h 94 % 0.00 in /  0 mm
20:21 63.4 °F /  17.4 °C 61.6 °F /  16.4 °C 29.84 in /  1010.4 hPa North 2.0 mph /  3.2 km/h 5.8 mph /  9.3 km/h 94 % 0.00 in /  0 mm
20:26 63.4 °F /  17.4 °C 61.3 °F /  16.3 °C 29.84 in /  1010.4 hPa NNE 3.0 mph /  4.8 km/h 3.5 mph /  5.6 km/h 93 % 0.00 in /  0 mm
20:31 63.5 °F /  17.5 °C 61.4 °F /  16.3 °C 29.84 in /  1010.4 hPa NNE 3.1 mph /  5 km/h 4.6 mph /  7.4 km/h 93 % 0.00 in /  0 mm
20:33 63.5 °F /  17.5 °C 61.4 °F /  16.3 °C 29.84 in /  1010.4 hPa Calm   3.5 mph /  5.6 km/h 93 % 0.00 in /  0 mm
20:38 63.5 °F /  17.5 °C 61.4 °F /  16.3 °C 29.84 in /  1010.4 hPa Calm     93 % 0.00 in /  0 mm
20:43 63.6 °F /  17.6 °C 61.5 °F /  16.4 °C 29.84 in /  1010.4 hPa North 0.2 mph /  0.3 km/h 1.2 mph /  1.9 km/h 93 % 0.02 in /  0.51 mm
20:48 63.6 °F /  17.6 °C 61.5 °F /  16.4 °C 29.84 in /  1010.4 hPa North 0.9 mph /  1.4 km/h 2.3 mph /  3.7 km/h 93 % 0.05 in /  1.27 mm
20:53 63.7 °F /  17.6 °C 61.6 °F /  16.4 °C 29.84 in /  1010.4 hPa NNW 0.5 mph /  0.8 km/h 2.3 mph /  3.7 km/h 93 % 0.10 in /  2.54 mm
20:58 63.7 °F /  17.6 °C 61.6 °F /  16.4 °C 29.84 in /  1010.4 hPa North 0.7 mph /  1.1 km/h 2.3 mph /  3.7 km/h 93 % 0.13 in /  3.3 mm
21:03 63.7 °F /  17.6 °C 61.6 °F /  16.4 °C 29.83 in /  1010 hPa North 0.2 mph /  0.3 km/h 1.2 mph /  1.9 km/h 93 % 0.14 in /  3.56 mm
21:08 63.6 °F /  17.6 °C 61.5 °F /  16.4 °C 29.83 in /  1010 hPa North 3.0 mph /  4.8 km/h 4.6 mph /  7.4 km/h 93 % 0.18 in /  4.57 mm
21:13 63.6 °F /  17.6 °C 61.8 °F /  16.6 °C 29.84 in /  1010.4 hPa North 2.1 mph /  3.4 km/h 4.6 mph /  7.4 km/h 94 % 0.18 in /  4.57 mm
21:18 63.5 °F /  17.5 °C 61.7 °F /  16.5 °C 29.83 in /  1010 hPa NNE 2.0 mph /  3.2 km/h 4.6 mph /  7.4 km/h 94 % 0.18 in /  4.57 mm
21:23 63.4 °F /  17.4 °C 61.6 °F /  16.4 °C 29.83 in /  1010 hPa North 3.1 mph /  5 km/h 5.8 mph /  9.3 km/h 94 % 0.19 in /  4.83 mm
21:28 63.3 °F /  17.4 °C 61.5 °F /  16.4 °C 29.84 in /  1010.4 hPa NNE 0.1 mph /  0.2 km/h 1.2 mph /  1.9 km/h 94 % 0.20 in /  5.08 mm
21:30 63.2 °F /  17.3 °C 61.4 °F /  16.3 °C 29.84 in /  1010.4 hPa NNE 0.6 mph /  1 km/h   94 % 0.20 in /  5.08 mm
21:36 63.2 °F /  17.3 °C 61.4 °F /  16.3 °C 29.84 in /  1010.4 hPa NNE 1.0 mph /  1.6 km/h 5.0 mph /  8 km/h 94 % 0.00 in /  0 mm
21:41 63.1 °F /  17.3 °C 61.3 °F /  16.3 °C 29.83 in /  1010 hPa NNE 1.0 mph /  1.6 km/h 3.0 mph /  4.8 km/h 94 % 0.00 in /  0 mm
21:46 63.0 °F /  17.2 °C 61.2 °F /  16.2 °C 29.83 in /  1010 hPa NNE 1.0 mph /  1.6 km/h 4.0 mph /  6.4 km/h 94 % 0.01 in /  0.25 mm
21:51 62.9 °F /  17.2 °C 61.2 °F /  16.2 °C 29.83 in /  1010 hPa NNE 1.0 mph /  1.6 km/h 5.0 mph /  8 km/h 94 % 0.00 in /  0 mm
21:56 62.9 °F /  17.2 °C 61.1 °F /  16.2 °C 29.83 in /  1010 hPa NNE 1.7 mph /  2.7 km/h 3.5 mph /  5.6 km/h 94 % 0.13 in /  3.3 mm
22:01 62.8 °F /  17.1 °C 61.0 °F /  16.1 °C 29.83 in /  1010 hPa NE 0.2 mph /  0.3 km/h 3.5 mph /  5.6 km/h 94 % 0.12 in /  3.05 mm
22:06 62.7 °F /  17.1 °C 60.9 °F /  16.1 °C 29.82 in /  1009.7 hPa North 0.5 mph /  0.8 km/h 3.5 mph /  5.6 km/h 94 % 0.11 in /  2.79 mm
22:11 62.7 °F /  17.1 °C 60.9 °F /  16.1 °C 29.83 in /  1010 hPa NE 1.0 mph /  1.6 km/h 3.5 mph /  5.6 km/h 94 % 0.11 in /  2.79 mm
22:12 62.7 °F /  17.1 °C 60.9 °F /  16.1 °C 29.84 in /  1010.4 hPa Calm     94 % 0.11 in /  2.79 mm
22:17 62.7 °F /  17.1 °C 60.9 °F /  16.1 °C 29.84 in /  1010.4 hPa NE 0.2 mph /  0.3 km/h 2.3 mph /  3.7 km/h 94 % 0.13 in /  3.3 mm
22:22 62.7 °F /  17.1 °C 60.9 °F /  16.1 °C 29.83 in /  1010 hPa Calm   1.2 mph /  1.9 km/h 94 % 0.15 in /  3.81 mm
22:27 62.6 °F /  17 °C 61.1 °F /  16.2 °C 29.82 in /  1009.7 hPa ENE 3.0 mph /  4.8 km/h 5.8 mph /  9.3 km/h 95 % 0.20 in /  5.08 mm
22:29 62.6 °F /  17 °C 61.1 °F /  16.2 °C 29.81 in /  1009.4 hPa ENE 1.9 mph /  3.1 km/h 4.6 mph /  7.4 km/h 95 % 0.20 in /  5.08 mm
22:34 62.6 °F /  17 °C 61.1 °F /  16.2 °C 29.82 in /  1009.7 hPa ENE 1.6 mph /  2.6 km/h 3.5 mph /  5.6 km/h 95 % 0.22 in /  5.59 mm
22:39 62.5 °F /  16.9 °C 61.0 °F /  16.1 °C 29.82 in /  1009.7 hPa North 1.0 mph /  1.6 km/h 2.3 mph /  3.7 km/h 95 % 0.23 in /  5.84 mm
22:44 62.6 °F /  17 °C 61.1 °F /  16.2 °C 29.82 in /  1009.7 hPa NNE 2.0 mph /  3.2 km/h 3.5 mph /  5.6 km/h 95 % 0.26 in /  6.6 mm
22:49 62.6 °F /  17 °C 61.1 °F /  16.2 °C 29.83 in /  1010 hPa ESE 2.2 mph /  3.5 km/h 4.6 mph /  7.4 km/h 95 % 0.27 in /  6.86 mm
22:54 62.5 °F /  16.9 °C 61.0 °F /  16.1 °C 29.82 in /  1009.7 hPa North 2.2 mph /  3.5 km/h 5.0 mph /  8 km/h 95 % 0.29 in /  7.37 mm
22:59 62.5 °F /  16.9 °C 61.0 °F /  16.1 °C 29.82 in /  1009.7 hPa ENE 0.8 mph /  1.3 km/h 2.3 mph /  3.7 km/h 95 % 0.31 in /  7.87 mm
23:04 62.4 °F /  16.9 °C 60.9 °F /  16.1 °C 29.82 in /  1009.7 hPa NNE 0.6 mph /  1 km/h 3.0 mph /  4.8 km/h 95 % 0.31 in /  7.87 mm
23:09 62.4 °F /  16.9 °C 60.9 °F /  16.1 °C 29.81 in /  1009.4 hPa North 4.0 mph /  6.4 km/h 6.0 mph /  9.7 km/h 95 % 0.31 in /  7.87 mm
23:15 62.4 °F /  16.9 °C 61.2 °F /  16.2 °C 29.82 in /  1009.7 hPa North 2.0 mph /  3.2 km/h 4.0 mph /  6.4 km/h 96 % 0.29 in /  7.37 mm
23:21 62.3 °F /  16.8 °C 61.2 °F /  16.2 °C 29.82 in /  1009.7 hPa North 2.0 mph /  3.2 km/h 5.0 mph /  8 km/h 96 % 0.00 in /  0 mm
23:23 62.3 °F /  16.8 °C 61.1 °F /  16.2 °C 29.82 in /  1009.7 hPa North 2.6 mph /  4.2 km/h 5.8 mph /  9.3 km/h 96 % 0.25 in /  6.35 mm
23:26 62.4 °F /  16.9 °C 61.2 °F /  16.2 °C 29.82 in /  1009.7 hPa North 3.2 mph /  5.1 km/h 8.1 mph /  13 km/h 96 % 0.23 in /  5.84 mm
23:27 62.4 °F /  16.9 °C 61.2 °F /  16.2 °C 29.82 in /  1009.7 hPa NNW 2.3 mph /  3.7 km/h 8.1 mph /  13 km/h 96 % 0.22 in /  5.59 mm
23:28 62.3 °F /  16.8 °C 61.1 °F /  16.2 °C 29.81 in /  1009.4 hPa North 2.9 mph /  4.7 km/h 8.1 mph /  13 km/h 96 % 0.22 in /  5.59 mm
23:33 62.3 °F /  16.8 °C 61.1 °F /  16.2 °C 29.81 in /  1009.4 hPa North 4.2 mph /  6.8 km/h 6.9 mph /  11.1 km/h 96 % 0.18 in /  4.57 mm
23:36 62.3 °F /  16.8 °C 61.1 °F /  16.2 °C 29.80 in /  1009 hPa NE 5.6 mph /  9 km/h 9.0 mph /  14.5 km/h 96 % 0.19 in /  4.83 mm
23:42 62.2 °F /  16.8 °C 61.0 °F /  16.1 °C 29.81 in /  1009.4 hPa ENE 2.1 mph /  3.4 km/h 8.1 mph /  13 km/h 96 % 0.17 in /  4.32 mm
23:47 62.1 °F /  16.7 °C 60.9 °F /  16.1 °C 29.81 in /  1009.4 hPa North 1.3 mph /  2.1 km/h 5.8 mph /  9.3 km/h 96 % 0.14 in /  3.56 mm
23:52 62.1 °F /  16.7 °C 60.9 °F /  16.1 °C 29.80 in /  1009 hPa ENE 1.8 mph /  2.9 km/h 3.5 mph /  5.6 km/h 96 % 0.13 in /  3.3 mm
23:57 62.1 °F /  16.7 °C 60.9 °F /  16.1 °C 29.81 in /  1009.4 hPa North 2.8 mph /  4.5 km/h 5.8 mph /  9.3 km/h 96 % 0.09 in /  2.29 mm
Crab Meadow Weather
Compliments of Weather Underground - 3 mb

Script developed by  Jim McMurry - jmcmurry@mwt.net Adapted for the template by  Wim van der Kuil - Leuven-Template.eu

Extremes: By average annual rainfall, the wettest place in the world is Mawslynram, in Meghalaya State, India with 467 1/2 inches per annum.